createdAt,value
2019-02-05T00:01:23.478Z,101710.05
2019-02-05T00:04:27.365Z,101708.45
2019-02-05T00:07:31.171Z,101721.16
2019-02-05T00:10:35.133Z,101712.52
2019-02-05T00:13:38.932Z,101707.33
2019-02-05T00:16:42.876Z,101710.97
2019-02-05T00:19:46.767Z,101713.55
2019-02-05T00:22:50.702Z,101714.91
2019-02-05T00:26:05.668Z,101725.90
2019-02-05T00:29:00.059Z,101721.67
2019-02-05T00:32:03.929Z,101733.03
2019-02-05T00:35:08.114Z,101734.34
2019-02-05T00:38:12.087Z,101748.08
2019-02-05T00:41:15.957Z,101740.81
2019-02-05T00:44:19.769Z,101734.63
2019-02-05T00:47:23.742Z,101726.34
2019-02-05T00:50:27.623Z,101736.95
2019-02-05T00:53:31.430Z,101731.59
2019-02-05T00:56:35.307Z,101727.20
2019-02-05T00:59:39.149Z,101728.52
2019-02-05T01:02:43.099Z,101711.37
2019-02-05T01:05:47.012Z,101726.42
2019-02-05T01:08:50.815Z,101736.92
2019-02-05T01:11:54.634Z,101733.06
2019-02-05T01:14:58.511Z,101725.67
2019-02-05T01:18:02.676Z,101729.95
2019-02-05T01:21:06.630Z,101722.19
2019-02-05T01:24:10.454Z,101726.09
2019-02-05T01:27:14.781Z,101741.68
2019-02-05T01:30:21.121Z,101730.06
2019-02-05T01:33:24.951Z,101715.96
2019-02-05T01:36:28.857Z,101714.87
2019-02-05T01:39:32.667Z,101734.52
2019-02-05T01:42:36.643Z,101727.88
2019-02-05T01:45:40.542Z,101732.88
2019-02-05T01:48:44.365Z,101735.80
2019-02-05T01:51:48.293Z,101737.56
2019-02-05T01:54:53.351Z,101738.95
2019-02-05T01:57:58.553Z,101750.28
2019-02-05T02:01:02.429Z,101748.10
2019-02-05T02:04:06.311Z,101750.05
2019-02-05T02:07:10.742Z,101750.80
2019-02-05T02:10:17.415Z,101745.10
2019-02-05T02:13:21.303Z,101753.84
2019-02-05T02:16:25.307Z,101761.27
2019-02-05T02:19:29.305Z,101759.02
2019-02-05T02:22:33.128Z,101757.62
2019-02-05T02:25:37.002Z,101759.84
2019-02-05T02:28:40.903Z,101761.19
2019-02-05T02:31:44.717Z,101754.70
2019-02-05T02:34:48.516Z,101758.60
2019-02-05T02:37:52.600Z,101759.13
2019-02-05T02:40:56.646Z,101767.42
2019-02-05T02:44:00.445Z,101771.47
2019-02-05T02:47:04.417Z,101770.61
2019-02-05T02:50:10.062Z,101776.77
2019-02-05T02:53:13.934Z,101771.55
2019-02-05T02:56:17.873Z,101776.80
2019-02-05T02:59:37.556Z,101776.88
2019-02-05T03:02:41.438Z,101768.96
2019-02-05T03:05:45.415Z,101760.22
2019-02-05T03:08:49.258Z,101764.57
2019-02-05T03:11:53.303Z,101767.72
2019-02-05T03:14:57.211Z,101770.31
2019-02-05T03:18:01.035Z,101765.84
2019-02-05T03:21:05.106Z,101773.84
2019-02-05T03:24:09.010Z,101759.88
2019-02-05T03:27:17.979Z,101759.53
2019-02-05T03:30:20.068Z,101768.73
2019-02-05T03:33:24.035Z,101761.44
2019-02-05T03:36:27.899Z,101764.55
2019-02-05T03:39:31.736Z,101768.48
2019-02-05T03:42:35.554Z,101765.58
2019-02-05T03:45:39.511Z,101755.48
2019-02-05T03:48:45.039Z,101767.69
2019-02-05T03:52:34.717Z,101768.52
2019-02-05T03:56:11.942Z,101765.22
2019-02-05T03:59:34.148Z,101762.95
2019-02-05T04:03:01.845Z,101781.80
2019-02-05T04:06:39.140Z,101780.45
2019-02-05T04:10:11.296Z,101773.46
2019-02-05T04:13:48.478Z,101780.03
2019-02-05T04:17:23.569Z,101789.78
2019-02-05T04:20:54.985Z,101791.41
2019-02-05T04:24:32.279Z,101798.17
2019-02-05T04:27:59.733Z,101786.80
2019-02-05T04:31:12.455Z,101807.83
2019-02-05T04:34:40.964Z,101796.03
2019-02-05T04:38:33.995Z,101813.75
2019-02-05T04:42:34.610Z,101802.85
2019-02-05T04:46:16.638Z,101806.17
2019-02-05T04:50:13.826Z,101816.00
2019-02-05T04:54:05.049Z,101819.45
2019-02-05T04:57:30.332Z,101824.74
2019-02-05T05:00:59.899Z,101821.11
2019-02-05T05:04:29.244Z,101825.58
2019-02-05T05:08:00.338Z,101833.80
2019-02-05T05:11:04.333Z,101823.25
2019-02-05T05:14:08.699Z,101829.00
2019-02-05T05:17:12.578Z,101823.56
2019-02-05T05:20:16.537Z,101822.70
2019-02-05T05:23:20.797Z,101822.66
2019-02-05T05:26:24.748Z,101821.52
2019-02-05T05:29:29.052Z,101831.48
2019-02-05T05:32:33.131Z,101844.16
2019-02-05T05:35:43.557Z,101841.98
2019-02-05T05:38:42.644Z,101839.73
2019-02-05T05:41:46.653Z,101848.03
2019-02-05T05:44:50.515Z,101849.01
2019-02-05T05:47:54.352Z,101853.84
2019-02-05T05:50:58.211Z,101848.59
2019-02-05T05:54:02.130Z,101857.67
2019-02-05T05:57:06.097Z,101867.81
2019-02-05T06:00:14.414Z,101871.27
2019-02-05T06:03:18.222Z,101861.53
2019-02-05T06:06:22.044Z,101871.97
2019-02-05T06:09:25.945Z,101877.37
2019-02-05T06:12:29.793Z,101878.70
2019-02-05T06:15:35.851Z,101883.83
2019-02-05T06:18:39.393Z,101888.02
2019-02-05T06:21:43.247Z,101892.85
2019-02-05T06:24:47.226Z,101892.48
2019-02-05T06:27:51.206Z,101890.02
2019-02-05T06:30:55.084Z,101894.42
2019-02-05T06:33:58.938Z,101898.56
2019-02-05T06:37:02.774Z,101893.92
2019-02-05T06:40:07.754Z,101900.90
2019-02-05T06:43:11.688Z,101911.00
2019-02-05T06:46:15.515Z,101906.40
2019-02-05T06:49:19.432Z,101912.52
2019-02-05T06:52:23.413Z,101917.45
2019-02-05T06:55:27.333Z,101923.67
2019-02-05T06:58:31.334Z,101923.03
2019-02-05T07:01:35.456Z,101927.91
2019-02-05T07:04:39.326Z,101924.87
2019-02-05T07:07:43.299Z,101936.66
2019-02-05T07:10:47.662Z,101928.73
2019-02-05T07:13:51.563Z,101934.94
2019-02-05T07:16:55.457Z,101943.84
2019-02-05T07:19:59.769Z,101945.16
2019-02-05T07:23:03.827Z,101960.80
2019-02-05T07:26:07.868Z,101960.39
2019-02-05T07:29:11.717Z,101964.79
2019-02-05T07:32:15.635Z,101968.36
2019-02-05T07:35:19.694Z,101971.89
2019-02-05T07:38:23.714Z,101966.72
2019-02-05T07:41:27.635Z,101969.19
2019-02-05T07:44:31.490Z,101979.91
2019-02-05T07:47:35.329Z,101983.19
2019-02-05T07:50:39.237Z,101983.31
2019-02-05T07:53:43.347Z,101992.87
2019-02-05T07:56:47.231Z,101997.44
2019-02-05T07:59:51.037Z,101993.95
2019-02-05T08:02:55.414Z,102004.47
2019-02-05T08:05:59.331Z,102007.95
2019-02-05T08:09:04.799Z,102001.83
2019-02-05T08:12:08.722Z,102015.02
2019-02-05T08:15:14.851Z,102011.65
2019-02-05T08:18:18.821Z,102018.77
2019-02-05T08:21:22.736Z,102030.26
2019-02-05T08:24:26.546Z,102031.09
2019-02-05T08:27:30.572Z,102034.28
2019-02-05T08:30:37.589Z,102042.59
2019-02-05T08:33:41.511Z,102045.34
2019-02-05T08:36:45.470Z,102050.97
2019-02-05T08:39:49.331Z,102054.34
2019-02-05T08:42:53.255Z,102042.84
2019-02-05T08:45:57.477Z,102039.80
2019-02-05T08:49:01.363Z,102051.17
2019-02-05T08:52:05.325Z,102057.38
2019-02-05T08:55:10.501Z,102047.84
2019-02-05T08:58:14.551Z,102050.44
2019-02-05T09:01:18.507Z,102055.37
2019-02-05T09:04:22.402Z,102055.81
2019-02-05T09:07:26.245Z,102057.55
2019-02-05T09:10:34.257Z,102059.06
2019-02-05T09:13:38.054Z,102065.64
2019-02-05T09:16:41.933Z,102056.39
2019-02-05T09:19:45.705Z,102066.91
2019-02-05T09:22:49.729Z,102077.22
2019-02-05T09:25:53.586Z,102065.88
2019-02-05T09:28:57.470Z,102069.33
2019-02-05T09:32:01.368Z,102075.08
2019-02-05T09:35:06.470Z,102070.72
2019-02-05T09:38:10.444Z,102079.33
2019-02-05T09:41:14.293Z,102090.20
2019-02-05T09:44:18.130Z,102079.74
2019-02-05T09:47:22.260Z,102076.70
2019-02-05T09:50:26.078Z,102082.90
2019-02-05T09:53:29.966Z,102093.05
2019-02-05T09:56:34.185Z,102086.55
2019-02-05T09:59:45.159Z,102091.88
2019-02-05T10:02:43.614Z,102092.71
2019-02-05T10:05:47.894Z,102090.50
2019-02-05T10:08:51.737Z,102084.47
2019-02-05T10:11:55.664Z,102086.50
2019-02-05T10:14:59.574Z,102100.70
2019-02-05T10:18:03.515Z,102091.97
2019-02-05T10:21:07.490Z,102097.72
2019-02-05T10:24:11.487Z,102111.37
2019-02-05T10:27:15.301Z,102114.33
2019-02-05T10:30:21.949Z,102108.80
2019-02-05T10:33:25.740Z,102116.14
2019-02-05T10:36:29.710Z,102129.23
2019-02-05T10:39:33.581Z,102132.73
2019-02-05T10:42:37.582Z,102124.42
2019-02-05T10:45:41.524Z,102130.28
2019-02-05T10:48:45.373Z,102128.27
2019-02-05T10:51:49.184Z,102123.94
2019-02-05T10:54:53.113Z,102138.36
2019-02-05T10:57:57.277Z,102136.72
2019-02-05T11:01:01.103Z,102128.30
2019-02-05T11:04:05.161Z,102138.73
2019-02-05T11:07:09.240Z,102130.94
2019-02-05T11:10:13.356Z,102153.84
2019-02-05T11:13:18.963Z,102140.71
2019-02-05T11:16:23.008Z,102130.14
2019-02-05T11:19:26.906Z,102136.86
2019-02-05T11:22:31.119Z,102121.50
2019-02-05T11:25:35.378Z,102120.69
2019-02-05T11:28:39.164Z,102123.30
2019-02-05T11:31:43.064Z,102127.82
2019-02-05T11:34:46.859Z,102133.73
2019-02-05T11:37:50.892Z,102133.35
2019-02-05T11:40:55.054Z,102142.31
2019-02-05T11:43:58.857Z,102137.44
2019-02-05T11:47:03.984Z,102135.70
2019-02-05T11:50:08.836Z,102131.65
2019-02-05T11:53:12.782Z,102126.34
2019-02-05T11:56:16.586Z,102132.13
2019-02-05T11:59:20.544Z,102122.76
2019-02-05T12:02:24.463Z,102136.95
2019-02-05T12:05:28.283Z,102138.02
2019-02-05T12:08:32.650Z,102128.70
2019-02-05T12:11:36.489Z,102147.80
2019-02-05T12:14:40.279Z,102131.49
2019-02-05T12:17:44.226Z,102145.11
2019-02-05T12:20:48.091Z,102148.91
2019-02-05T12:23:52.099Z,102137.94
2019-02-05T12:26:55.989Z,102134.80
2019-02-05T12:29:59.797Z,102161.16
2019-02-05T12:33:04.251Z,102148.45
2019-02-05T12:36:08.160Z,102143.58
2019-02-05T12:39:17.580Z,102144.44
2019-02-05T12:42:21.442Z,102147.47
2019-02-05T12:45:27.475Z,102156.70
2019-02-05T12:48:31.401Z,102154.03
2019-02-05T12:51:35.228Z,102151.34
2019-02-05T12:54:39.102Z,102153.85
2019-02-05T12:57:43.100Z,102157.81
2019-02-05T13:00:57.988Z,102158.73
2019-02-05T13:03:55.317Z,102154.30
2019-02-05T13:06:59.193Z,102156.13
2019-02-05T13:10:03.194Z,102170.21
2019-02-05T13:13:08.142Z,102161.05
2019-02-05T13:16:12.063Z,102157.48
2019-02-05T13:19:15.903Z,102166.77
2019-02-05T13:22:19.722Z,102172.07
2019-02-05T13:25:25.280Z,102157.88
2019-02-05T13:28:29.201Z,102170.72
2019-02-05T13:31:34.056Z,102169.41
2019-02-05T13:34:37.961Z,102178.28
2019-02-05T13:37:41.902Z,102172.91
2019-02-05T13:40:46.692Z,102172.91
2019-02-05T13:43:50.557Z,102187.98
2019-02-05T13:46:54.509Z,102179.20
2019-02-05T13:49:58.326Z,102180.58
2019-02-05T13:53:02.259Z,102174.68
2019-02-05T13:56:07.199Z,102181.03
2019-02-05T13:59:11.059Z,102184.51
2019-02-05T14:02:14.950Z,102186.84
2019-02-05T14:05:18.897Z,102184.95
2019-02-05T14:08:22.971Z,102188.31
2019-02-05T14:11:27.350Z,102183.45
2019-02-05T14:14:31.252Z,102185.58
2019-02-05T14:17:35.295Z,102187.83
2019-02-05T14:20:39.254Z,102190.50
2019-02-05T14:23:43.190Z,102196.77
2019-02-05T14:26:47.253Z,102201.23
2019-02-05T14:29:51.086Z,102200.27
2019-02-05T14:32:54.959Z,102200.81
2019-02-05T14:35:59.136Z,102208.27
2019-02-05T14:39:04.481Z,102204.77
2019-02-05T14:42:08.401Z,102210.40
2019-02-05T14:45:12.982Z,102210.01
2019-02-05T14:48:16.954Z,102215.64
2019-02-05T14:51:20.871Z,102215.23
2019-02-05T14:54:24.788Z,102223.10
2019-02-05T14:57:28.661Z,102226.67
2019-02-05T15:00:33.565Z,102226.22
2019-02-05T15:03:37.444Z,102232.42
2019-02-05T15:06:41.284Z,102230.59
2019-02-05T15:09:45.123Z,102237.06
2019-02-05T15:12:49.162Z,102234.03
2019-02-05T15:15:53.088Z,102236.55
2019-02-05T15:18:56.886Z,102236.09
2019-02-05T15:22:00.682Z,102237.03
2019-02-05T15:25:05.210Z,102242.78
2019-02-05T15:28:09.213Z,102244.10
2019-02-05T15:31:13.011Z,102252.75
2019-02-05T15:34:25.401Z,102250.63
2019-02-05T15:37:29.188Z,102254.03
2019-02-05T15:40:33.126Z,102256.59
2019-02-05T15:43:37.441Z,102250.87
2019-02-05T15:46:41.322Z,102266.69
2019-02-05T15:49:45.275Z,102262.31
2019-02-05T15:52:49.493Z,102261.34
2019-02-05T15:55:53.542Z,102262.13
2019-02-05T15:58:57.750Z,102268.69
2019-02-05T16:02:06.343Z,102273.31
2019-02-05T16:05:08.951Z,102276.84
2019-02-05T16:08:12.907Z,102270.83
2019-02-05T16:11:17.039Z,102276.09
2019-02-05T16:14:21.050Z,102278.58
2019-02-05T16:17:25.840Z,102275.95
2019-02-05T16:20:29.710Z,102288.30
2019-02-05T16:23:33.588Z,102286.08
2019-02-05T16:26:37.425Z,102284.27
2019-02-05T16:29:49.659Z,102290.73
2019-02-05T16:32:53.474Z,102292.75
2019-02-05T16:35:57.384Z,102296.57
2019-02-05T16:39:01.400Z,102296.45
2019-02-05T16:42:05.488Z,102291.54
2019-02-05T16:45:12.020Z,102287.78
2019-02-05T16:48:15.969Z,102293.69
2019-02-05T16:51:20.019Z,102293.34
2019-02-05T16:54:23.988Z,102301.23
2019-02-05T16:57:27.825Z,102303.22
2019-02-05T17:00:32.991Z,102309.02
2019-02-05T17:03:36.874Z,102310.25
2019-02-05T17:06:40.795Z,102308.77
2019-02-05T17:09:44.618Z,102304.55
2019-02-05T17:12:48.661Z,102315.98
2019-02-05T17:15:52.556Z,102312.95
2019-02-05T17:18:56.437Z,102317.19
2019-02-05T17:22:00.300Z,102321.47
2019-02-05T17:25:04.871Z,102322.50
2019-02-05T17:28:08.849Z,102324.61
2019-02-05T17:31:12.758Z,102327.70
2019-02-05T17:34:16.638Z,102325.23
2019-02-05T17:37:20.545Z,102330.52
2019-02-05T17:40:25.028Z,102331.83
2019-02-05T17:43:28.882Z,102335.98
2019-02-05T17:46:32.750Z,102339.52
2019-02-05T17:49:36.598Z,102336.67
2019-02-05T17:52:40.559Z,102347.72
2019-02-05T17:55:44.555Z,102340.08
2019-02-05T17:58:48.628Z,102343.17
2019-02-05T18:01:52.512Z,102354.52
2019-02-05T18:04:56.376Z,102357.22
2019-02-05T18:08:00.207Z,102360.70
2019-02-05T18:11:04.427Z,102356.89
2019-02-05T18:14:08.347Z,102362.61
2019-02-05T18:17:12.287Z,102363.52
2019-02-05T18:20:16.391Z,102365.72
2019-02-05T18:23:20.280Z,102360.50
2019-02-05T18:26:24.073Z,102362.54
2019-02-05T18:29:27.904Z,102366.88
2019-02-05T18:32:31.731Z,102366.34
2019-02-05T18:35:35.689Z,102363.17
2019-02-05T18:38:40.079Z,102362.60
2019-02-05T18:41:43.894Z,102364.73
2019-02-05T18:44:48.295Z,102361.12
2019-02-05T18:47:52.181Z,102367.58
2019-02-05T18:50:56.063Z,102375.13
2019-02-05T18:53:59.917Z,102374.29
2019-02-05T18:57:03.889Z,102379.49
2019-02-05T19:00:12.741Z,102372.39
2019-02-05T19:03:16.712Z,102376.87
2019-02-05T19:06:20.575Z,102372.86
2019-02-05T19:09:24.380Z,102369.97
2019-02-05T19:12:28.202Z,102379.23
2019-02-05T19:15:33.683Z,102374.59
2019-02-05T19:18:37.845Z,102378.61
2019-02-05T19:21:41.682Z,102375.98
2019-02-05T19:25:07.732Z,102376.60
2019-02-05T19:28:16.140Z,102376.60
2019-02-05T19:31:25.861Z,102380.08
2019-02-05T19:34:29.652Z,102371.88
2019-02-05T19:37:33.574Z,102373.86
2019-02-05T19:40:37.495Z,102375.22
2019-02-05T19:43:41.285Z,102379.53
2019-02-05T19:46:57.527Z,102361.94
2019-02-05T19:50:02.768Z,102374.75
2019-02-05T19:53:07.080Z,102374.36
2019-02-05T19:56:10.910Z,102377.14
2019-02-05T19:59:14.731Z,102372.55
2019-02-05T20:02:18.738Z,102375.95
2019-02-05T20:05:22.562Z,102373.58
2019-02-05T20:08:26.970Z,102380.34
2019-02-05T20:11:30.902Z,102380.73
2019-02-05T20:14:34.795Z,102377.99
2019-02-05T20:17:39.051Z,102390.60
2019-02-05T20:20:42.842Z,102389.73
2019-02-05T20:23:46.719Z,102394.79
2019-02-05T20:26:51.015Z,102386.33
2019-02-05T20:29:54.845Z,102391.49
2019-02-05T20:32:58.720Z,102394.64
2019-02-05T20:36:02.665Z,102394.48
2019-02-05T20:39:12.969Z,102395.22
2019-02-05T20:42:16.814Z,102401.37
2019-02-05T20:45:21.070Z,102396.95
2019-02-05T20:48:24.925Z,102406.77
2019-02-05T20:51:28.806Z,102411.39
2019-02-05T20:54:32.735Z,102416.80
2019-02-05T20:57:36.540Z,102415.63
2019-02-05T21:00:40.485Z,102414.34
2019-02-05T21:03:44.370Z,102422.20
2019-02-05T21:06:48.280Z,102420.54
2019-02-05T21:09:52.069Z,102415.45
2019-02-05T21:12:55.976Z,102421.91
2019-02-05T21:15:59.917Z,102414.50
2019-02-05T21:19:03.819Z,102424.20
2019-02-05T21:22:09.026Z,102423.97
2019-02-05T21:25:14.756Z,102422.27
2019-02-05T21:28:18.748Z,102427.21
2019-02-05T21:31:22.580Z,102433.09
2019-02-05T21:34:26.463Z,102432.51
2019-02-05T21:37:30.274Z,102431.81
2019-02-05T21:40:34.080Z,102436.33
2019-02-05T21:43:37.874Z,102438.80
2019-02-05T21:46:41.995Z,102444.16
2019-02-05T21:49:45.939Z,102443.52
2019-02-05T21:52:49.853Z,102437.88
2019-02-05T21:55:54.202Z,102433.94
2019-02-05T21:58:58.021Z,102433.96
2019-02-05T22:02:01.980Z,102421.41
2019-02-05T22:05:08.154Z,102425.34
2019-02-05T22:08:12.120Z,102430.59
2019-02-05T22:11:16.025Z,102428.89
2019-02-05T22:14:19.857Z,102433.48
2019-02-05T22:17:23.661Z,102432.38
2019-02-05T22:20:27.649Z,102419.91
2019-02-05T22:23:31.525Z,102418.94
2019-02-05T22:26:35.508Z,102435.07
2019-02-05T22:29:39.619Z,102413.20
2019-02-05T22:32:43.542Z,102409.02
2019-02-05T22:35:47.367Z,102414.27
2019-02-05T22:38:51.288Z,102407.62
2019-02-05T22:41:55.509Z,102412.89
2019-02-05T22:44:59.333Z,102415.64
2019-02-05T22:48:03.325Z,102417.92
2019-02-05T22:51:07.236Z,102422.42
2019-02-05T22:54:11.137Z,102410.27
2019-02-05T22:57:14.968Z,102414.05
2019-02-05T23:00:31.583Z,102407.95
2019-02-05T23:03:44.743Z,102407.97
2019-02-05T23:07:00.559Z,102404.16
2019-02-05T23:10:47.233Z,102404.86
2019-02-05T23:13:51.294Z,102406.18
2019-02-05T23:16:55.278Z,102397.52
2019-02-05T23:19:59.413Z,102406.11
2019-02-05T23:23:03.309Z,102411.64
2019-02-05T23:26:07.216Z,102405.65
2019-02-05T23:29:11.328Z,102403.16
2019-02-05T23:32:15.281Z,102409.73
2019-02-05T23:35:19.181Z,102403.16
2019-02-05T23:38:29.506Z,102405.34
2019-02-05T23:41:28.957Z,102411.50
2019-02-05T23:44:32.849Z,102413.93
2019-02-05T23:47:37.037Z,102418.67
2019-02-05T23:50:40.869Z,102414.92
2019-02-05T23:53:44.711Z,102414.86
2019-02-05T23:56:48.816Z,102412.87
2019-02-05T23:59:52.611Z,102412.49
